Zell, Missouri
Current Conditions -  °F | °C
As of 6:55 PM on Tuesday 21 Oct 2014 (Local Time) from KSAR Reporting Station
Clear Clear  
Wind Chill: 55°   Ceiling: Unl
Heat Index: 55°   Visibility: 10mi
Dew Point: 43°   Wind: 5mph
Humidity: 64%   Direction: 30°NNE
Pressure: 30.13"   Gusts: NA
Location:  37.9762°N, 90.0499°W
Report Text: KSAR 212355Z AUTO 03004KT 10SM CLR 13/06 A3013 RMK AO2 T01300063 10195 20130
Loading
Personal Weather Stations






























Interactive Weather Map
Tropical Storm Tracking
New forecast layout! Learn more

10-Day Weather Forecast

Advertisements
Track Severe Weather on mobile